Time;durP1;ratioP1;P1;durP2;ratioP2;P2;SDS_P1;SDS_P2;PMS_P1;PMS_P2;Temp;Humidity;BMP_temperature;BMP_pressure;BME280_temperature;BME280_humidity;BME280_pressure;Samples;Min_cycle;Max_cycle;Signal;HPM_P1;HPM_P2
2022/06/29 00:01:52;;;;;;;3.60;2.22;;;;;;;14.99;100.00;100560.41;5036348;28;20554;-69
2022/06/29 00:04:18;;;;;;;3.20;1.73;;;;;;;14.93;100.00;100537.00;5053206;28;20024;-69
2022/06/29 00:06:44;;;;;;;5.38;1.92;;;;;;;15.05;100.00;100546.75;5053843;28;20036;-69
2022/06/29 00:09:10;;;;;;;5.35;2.13;;;;;;;15.03;100.00;100547.81;5038694;28;20079;-69
2022/06/29 00:11:35;;;;;;;4.47;1.90;;;;;;;14.97;100.00;100540.28;5053810;28;20028;-69
2022/06/29 00:14:00;;;;;;;7.03;2.28;;;;;;;15.03;100.00;100537.25;5063482;28;20882;-69
2022/06/29 00:16:26;;;;;;;5.28;2.28;;;;;;;14.92;100.00;100530.00;5048261;28;20024;-69
2022/06/29 00:18:51;;;;;;;8.18;2.25;;;;;;;14.98;100.00;100550.75;5004293;28;20827;-69
2022/06/29 00:21:16;;;;;;;5.05;2.45;;;;;;;14.80;100.00;100526.34;5053703;28;20024;-69
2022/06/29 00:23:42;;;;;;;3.53;1.80;;;;;;;14.79;100.00;100534.41;5034183;28;20064;-68
2022/06/29 00:26:07;;;;;;;4.45;2.10;;;;;;;14.79;100.00;100539.69;5047805;28;20928;-69
2022/06/29 00:28:33;;;;;;;5.88;2.42;;;;;;;14.74;100.00;100544.41;5043546;28;20021;-69
2022/06/29 00:30:58;;;;;;;4.30;1.80;;;;;;;14.64;100.00;100527.44;5040537;28;20035;-69
2022/06/29 00:33:24;;;;;;;6.65;2.55;;;;;;;14.71;100.00;100536.69;5034048;28;20037;-69
2022/06/29 00:35:49;;;;;;;5.63;1.92;;;;;;;14.67;100.00;100540.47;5023199;28;20047;-70
2022/06/29 00:38:15;;;;;;;4.00;1.75;;;;;;;14.46;100.00;100511.00;5069355;28;20481;-69
2022/06/29 00:40:40;;;;;;;6.15;2.13;;;;;;;14.59;100.00;100526.91;5078616;28;20028;-69
2022/06/29 00:43:06;;;;;;;3.40;1.98;;;;;;;14.59;100.00;100537.50;5081680;28;20757;-69
2022/06/29 00:45:31;;;;;;;3.83;2.03;;;;;;;14.48;100.00;100524.09;5089741;28;20016;-69
2022/06/29 00:47:56;;;;;;;4.60;2.45;;;;;;;14.47;100.00;100523.25;5083887;28;20501;-68
2022/06/29 00:50:24;;;;;;;4.93;2.22;;;;;;;14.44;100.00;100519.97;5068912;28;20107;-69
2022/06/29 00:52:50;;;;;;;3.55;1.95;;;;;;;14.21;100.00;100479.97;5080884;28;20038;-68
2022/06/29 00:55:18;;;;;;;5.53;2.00;;;;;;;14.45;100.00;100521.66;5079267;28;20096;-68
2022/06/29 00:57:44;;;;;;;5.47;2.33;;;;;;;14.23;100.00;100501.84;5077773;28;20522;-69
2022/06/29 01:00:11;;;;;;;4.95;2.13;;;;;;;14.37;100.00;100521.28;5085079;28;20024;-69
2022/06/29 01:02:37;;;;;;;8.40;2.40;;;;;;;14.28;100.00;100507.69;5084857;28;20547;-68
2022/06/29 01:05:04;;;;;;;5.00;2.60;;;;;;;14.36;100.00;100522.25;5088080;28;20020;-68
2022/06/29 01:07:30;;;;;;;6.90;2.28;;;;;;;14.33;100.00;100510.03;5073508;28;20116;-68
2022/06/29 01:09:56;;;;;;;3.30;1.90;;;;;;;14.26;100.00;100496.34;5063221;28;20020;-68
2022/06/29 01:12:21;;;;;;;5.32;2.72;;;;;;;14.32;100.00;100501.28;5086640;28;20077;-68
2022/06/29 01:14:49;;;;;;;5.05;2.20;;;;;;;14.41;100.00;100517.50;5056376;28;20438;-68
2022/06/29 01:17:14;;;;;;;4.35;1.98;;;;;;;14.41;100.00;100507.78;5086629;28;20023;-68
2022/06/29 01:19:41;;;;;;;4.50;1.83;;;;;;;14.41;100.00;100509.59;5079786;28;20039;-67
2022/06/29 01:22:10;;;;;;;3.58;2.08;;;;;;;14.37;100.00;100502.78;5092341;28;20046;-67
2022/06/29 01:24:36;;;;;;;4.13;2.05;;;;;;;14.28;100.00;100496.28;5073999;28;20033;-67
2022/06/29 01:27:02;;;;;;;8.35;2.50;;;;;;;14.40;100.00;100505.25;5085153;28;20036;-67
2022/06/29 01:29:29;;;;;;;3.65;2.15;;;;;;;14.29;100.00;100490.91;5091619;28;20046;-67
2022/06/29 01:31:55;;;;;;;4.55;2.22;;;;;;;14.01;100.00;100447.81;5073136;28;20364;-68
2022/06/29 01:34:21;;;;;;;4.60;2.28;;;;;;;14.25;100.00;100499.97;5089442;28;20036;-68
2022/06/29 01:36:46;;;;;;;3.97;2.53;;;;;;;14.15;100.00;100479.50;5072390;28;20044;-68
2022/06/29 01:39:12;;;;;;;3.22;2.03;;;;;;;14.10;100.00;100479.78;5086417;28;20024;-67
2022/06/29 01:41:37;;;;;;;4.05;2.15;;;;;;;14.14;100.00;100499.78;5076430;28;20955;-67
2022/06/29 01:44:03;;;;;;;4.10;1.80;;;;;;;13.95;100.00;100478.13;5062010;28;20032;-67
2022/06/29 01:46:28;;;;;;;4.93;2.30;;;;;;;13.92;100.00;100482.75;5085165;28;20032;-68
2022/06/29 01:48:53;;;;;;;4.43;2.22;;;;;;;13.94;100.00;100486.13;5079211;28;20123;-68
2022/06/29 01:51:19;;;;;;;4.38;2.40;;;;;;;13.94;100.00;100497.56;5077231;28;20024;-68
2022/06/29 01:53:44;;;;;;;3.50;1.80;;;;;;;13.86;100.00;100494.53;5086911;28;20039;-68
2022/06/29 01:56:09;;;;;;;3.80;2.15;;;;;;;13.81;100.00;100486.91;5061206;28;20035;-68
2022/06/29 01:58:35;;;;;;;5.50;2.42;;;;;;;13.66;100.00;100460.56;5080121;28;20509;-68
2022/06/29 02:01:00;;;;;;;3.95;1.85;;;;;;;13.56;100.00;100443.59;5077046;28;20032;-68
2022/06/29 02:03:25;;;;;;;3.58;1.80;;;;;;;13.71;100.00;100482.28;5060807;28;20028;-68
2022/06/29 02:05:51;;;;;;;5.75;2.10;;;;;;;13.75;100.00;100491.72;5074763;28;20103;-68
2022/06/29 02:08:16;;;;;;;3.45;1.95;;;;;;;13.75;100.00;100486.44;5086548;28;20027;-68
2022/06/29 02:10:42;;;;;;;4.38;2.25;;;;;;;13.68;100.00;100475.41;5075430;28;20047;-68
2022/06/29 02:13:07;;;;;;;11.93;2.10;;;;;;;13.57;100.00;100466.44;5082459;28;20020;-68
2022/06/29 02:15:32;;;;;;;4.32;2.42;;;;;;;13.59;100.00;100480.38;5085838;28;20028;-68
2022/06/29 02:17:58;;;;;;;3.53;1.83;;;;;;;13.47;100.00;100460.03;5078653;28;20449;-68
2022/06/29 02:20:23;;;;;;;7.97;2.70;;;;;;;13.49;100.00;100473.97;5079990;28;20530;-68
2022/06/29 02:22:48;;;;;;;3.53;1.90;;;;;;;13.44;100.00;100461.06;5086093;28;20029;-68
2022/06/29 02:25:14;;;;;;;9.20;2.65;;;;;;;13.47;100.00;100462.66;5081660;28;20043;-68
2022/06/29 02:27:41;;;;;;;5.10;2.50;;;;;;;13.43;100.00;100466.44;5077266;28;20025;-68
2022/06/29 02:30:08;;;;;;;3.28;2.17;;;;;;;13.31;100.00;100450.38;5083777;28;20025;-68
2022/06/29 02:35:18;;;;;;;4.32;2.00;;;;;;;13.29;100.00;100444.34;5064999;28;20445;-68
2022/06/29 02:37:43;;;;;;;4.50;2.80;;;;;;;13.36;100.00;100460.66;5066843;28;20032;-69
2022/06/29 02:40:09;;;;;;;5.40;2.60;;;;;;;13.35;100.00;100458.16;5084238;28;20108;-69
2022/06/29 02:42:34;;;;;;;5.20;2.28;;;;;;;13.35;100.00;100452.88;5070682;28;20082;-69
2022/06/29 02:44:59;;;;;;;5.78;2.83;;;;;;;13.29;100.00;100446.16;5074148;28;20174;-68
2022/06/29 02:47:25;;;;;;;4.00;2.17;;;;;;;13.30;100.00;100453.97;5073797;28;20100;-68
2022/06/29 02:49:50;;;;;;;6.32;2.70;;;;;;;13.32;100.00;100452.09;5079381;28;20025;-69
2022/06/29 02:52:16;;;;;;;3.92;2.00;;;;;;;13.34;100.00;100459.94;5086408;28;20070;-68
2022/06/29 02:54:41;;;;;;;5.45;2.60;;;;;;;13.39;100.00;100462.28;5072894;28;20024;-68
2022/06/29 02:57:06;;;;;;;3.92;1.80;;;;;;;13.34;100.00;100465.22;5056752;28;20547;-68
2022/06/29 02:59:32;;;;;;;3.88;2.10;;;;;;;13.35;100.00;100460.78;5078075;28;20028;-68
2022/06/29 03:01:57;;;;;;;5.88;3.13;;;;;;;13.34;100.00;100459.94;5075703;28;20074;-68
2022/06/29 03:04:23;;;;;;;5.55;2.72;;;;;;;13.30;100.00;100461.91;5086087;28;20024;-67
2022/06/29 03:06:48;;;;;;;4.22;2.65;;;;;;;13.24;100.00;100448.22;5074828;28;20489;-68
2022/06/29 03:09:14;;;;;;;5.43;2.60;;;;;;;13.25;100.00;100455.19;5083980;28;20449;-68
2022/06/29 03:11:39;;;;;;;3.95;2.75;;;;;;;13.12;100.00;100435.75;5082622;28;20454;-68
2022/06/29 03:14:04;;;;;;;4.28;2.72;;;;;;;13.14;100.00;100447.94;5085530;28;20031;-68
2022/06/29 03:16:30;;;;;;;13.75;2.85;;;;;;;13.13;100.00;100451.50;5075715;28;20085;-68
2022/06/29 03:18:55;;;;;;;6.18;2.67;;;;;;;13.10;100.00;100443.78;5082419;28;20036;-68
2022/06/29 03:21:20;;;;;;;5.55;2.92;;;;;;;13.07;100.00;100436.03;5071717;28;20032;-68
2022/06/29 03:23:46;;;;;;;5.03;2.85;;;;;;;13.03;100.00;100433.66;5084290;28;20039;-68
2022/06/29 03:26:12;;;;;;;6.38;3.10;;;;;;;13.07;100.00;100446.56;5084081;28;20096;-67
2022/06/29 03:28:37;;;;;;;3.88;2.30;;;;;;;13.01;100.00;100431.09;5074807;28;20028;-68
2022/06/29 03:31:03;;;;;;;5.00;2.78;;;;;;;13.03;100.00;100438.91;5082305;28;20028;-68
2022/06/29 03:33:28;;;;;;;5.15;2.85;;;;;;;13.03;100.00;100439.78;5048873;28;20878;-68
2022/06/29 03:35:54;;;;;;;7.43;3.25;;;;;;;13.00;100.00;100434.69;5084199;28;20520;-67
2022/06/29 03:38:19;;;;;;;5.72;3.33;;;;;;;12.84;100.00;100418.06;5091624;28;20032;-68
2022/06/29 03:40:44;;;;;;;6.30;3.47;;;;;;;12.97;100.00;100439.28;5087264;28;20032;-68
2022/06/29 03:43:10;;;;;;;8.05;2.70;;;;;;;12.88;100.00;100422.22;5074704;28;20089;-68
2022/06/29 03:45:36;;;;;;;5.55;2.55;;;;;;;12.87;100.00;100436.34;5067525;28;20959;-68
2022/06/29 03:48:01;;;;;;;3.55;2.30;;;;;;;12.80;100.00;100435.00;5072441;28;20036;-68
2022/06/29 03:50:27;;;;;;;4.25;2.47;;;;;;;12.84;100.00;100439.19;5091539;28;20107;-68
2022/06/29 03:52:52;;;;;;;5.50;3.20;;;;;;;12.84;100.00;100433.91;5075934;28;20036;-68
2022/06/29 03:55:18;;;;;;;4.45;2.55;;;;;;;12.87;100.00;100433.72;5056684;28;20028;-68
2022/06/29 03:57:43;;;;;;;5.15;2.97;;;;;;;12.82;100.00;100417.31;5080304;28;20032;-68
2022/06/29 04:00:12;;;;;;;4.45;2.25;;;;;;;12.91;100.00;100429.94;5069807;28;20024;-68
2022/06/29 04:02:37;;;;;;;8.60;2.80;;;;;;;12.89;100.00;100415.16;5085256;28;20032;-68
2022/06/29 04:05:04;;;;;;;4.10;2.63;;;;;;;12.96;100.00;100422.63;5068716;28;20031;-68
2022/06/29 04:07:30;;;;;;;4.50;2.45;;;;;;;12.92;100.00;100405.25;5093021;28;20103;-68
2022/06/29 04:09:59;;;;;;;4.20;2.70;;;;;;;13.03;100.00;100423.94;5079575;28;20031;-68
2022/06/29 04:12:28;;;;;;;4.32;2.78;;;;;;;12.99;100.00;100406.59;5087978;28;20029;-68
2022/06/29 04:14:54;;;;;;;5.13;2.85;;;;;;;12.88;100.00;100382.66;5073430;28;20032;-68
2022/06/29 04:17:19;;;;;;;5.18;2.67;;;;;;;13.10;100.00;100419.19;5072663;28;20528;-68
2022/06/29 04:19:45;;;;;;;5.97;2.83;;;;;;;13.09;100.00;100405.13;5061031;28;20035;-68
2022/06/29 04:22:10;;;;;;;3.75;2.40;;;;;;;13.15;100.00;100402.13;5080080;28;20031;-68
2022/06/29 04:24:35;;;;;;;5.53;2.70;;;;;;;13.19;100.00;100398.38;5087830;28;20048;-68
2022/06/29 04:27:01;;;;;;;4.20;2.50;;;;;;;13.31;100.00;100408.16;5071664;28;20077;-68
2022/06/29 04:29:26;;;;;;;5.97;2.78;;;;;;;13.27;100.00;100390.84;5065042;28;20372;-67
2022/06/29 04:31:52;;;;;;;5.63;3.03;;;;;;;13.31;100.00;100392.31;5079201;28;20024;-67
2022/06/29 04:34:17;;;;;;;4.63;2.88;;;;;;;13.47;100.00;100408.09;5080014;28;20043;-67
2022/06/29 04:36:42;;;;;;;4.03;2.47;;;;;;;13.55;100.00;100416.34;5059047;28;20028;-67
2022/06/29 04:39:08;;;;;;;4.32;2.97;;;;;;;13.62;100.00;100406.28;5072644;28;20033;-67
2022/06/29 04:41:33;;;;;;;4.43;3.00;;;;;;;13.61;100.00;100389.59;5079018;28;20030;-68
2022/06/29 04:43:58;;;;;;;4.88;3.10;;;;;;;13.77;100.00;100405.31;5084149;28;20063;-68
2022/06/29 04:46:24;;;;;;;5.97;2.53;;;;;;;13.76;100.00;100395.69;5085879;28;20459;-67
2022/06/29 04:49:00;;;;;;;5.50;3.05;;;;;;;13.89;100.00;100414.25;5080220;28;20429;-67
2022/06/29 04:51:28;;;;;;;7.72;3.10;;;;;;;13.96;100.00;100413.75;5075905;28;20114;-67
2022/06/29 04:53:55;;;;;;;4.75;2.97;;;;;;;13.96;100.00;100400.53;5081336;28;20064;-67
2022/06/29 04:56:22;;;;;;;4.80;2.72;;;;;;;14.07;100.00;100407.78;5089045;28;20449;-67
2022/06/29 04:58:48;;;;;;;4.93;2.88;;;;;;;14.10;100.00;100403.16;5063659;28;20113;-68
2022/06/29 05:01:14;;;;;;;4.57;3.00;;;;;;;13.90;100.00;100363.97;5062174;28;20048;-67
2022/06/29 05:03:39;;;;;;;5.93;3.00;;;;;;;14.13;100.00;100395.03;5084128;28;20109;-67
2022/06/29 05:06:05;;;;;;;3.50;2.20;;;;;;;14.26;100.00;100406.50;5078394;28;20492;-68
2022/06/29 05:08:30;;;;;;;4.93;2.88;;;;;;;14.28;100.00;100396.69;5067543;28;20033;-67
2022/06/29 05:10:56;;;;;;;5.38;2.90;;;;;;;14.31;100.00;100396.47;5078106;28;20111;-67
2022/06/29 05:13:21;;;;;;;6.03;3.40;;;;;;;14.20;100.00;100367.25;5080989;28;20064;-67
2022/06/29 05:15:46;;;;;;;4.80;2.90;;;;;;;14.54;100.00;100405.56;5062241;28;20421;-67
2022/06/29 05:18:12;;;;;;;4.25;2.67;;;;;;;14.56;100.00;100400.19;5083563;28;20123;-68
2022/06/29 05:20:37;;;;;;;5.15;3.13;;;;;;;14.65;100.00;100397.78;5087581;28;20115;-68
2022/06/29 05:23:04;;;;;;;5.10;2.83;;;;;;;14.78;100.00;100409.22;5076811;28;20032;-67
2022/06/29 05:25:30;;;;;;;4.50;2.38;;;;;;;14.77;100.00;100402.22;5081473;28;20057;-68
2022/06/29 05:27:56;;;;;;;4.20;2.65;;;;;;;14.79;100.00;100403.00;5067937;28;20025;-68
2022/06/29 05:30:21;;;;;;;4.72;2.38;;;;;;;14.87;100.00;100410.38;5083753;28;20016;-68
2022/06/29 05:32:46;;;;;;;3.72;2.10;;;;;;;14.81;100.00;100394.94;5058417;28;20036;-68
2022/06/29 05:35:13;;;;;;;4.50;2.75;;;;;;;14.95;100.00;100412.50;5062865;28;20026;-68
2022/06/29 05:37:38;;;;;;;3.30;2.28;;;;;;;14.79;100.00;100391.56;5067925;28;20466;-67
2022/06/29 05:40:04;;;;;;;5.72;2.35;;;;;;;14.87;100.00;100405.09;5058162;28;20024;-67
2022/06/29 05:42:30;;;;;;;6.13;2.88;;;;;;;14.93;100.00;100414.44;5059296;28;20032;-67
2022/06/29 05:44:55;;;;;;;6.45;2.85;;;;;;;14.83;100.00;100398.34;5062896;28;20027;-67
2022/06/29 05:47:20;;;;;;;3.63;2.28;;;;;;;14.58;100.00;100362.09;5086650;28;20115;-68
2022/06/29 05:49:46;;;;;;;5.07;3.25;;;;;;;14.68;100.00;100383.47;5062506;28;20027;-67
2022/06/29 05:52:11;;;;;;;4.78;2.50;;;;;;;14.79;100.00;100412.72;5085264;28;20051;-67
2022/06/29 05:54:37;;;;;;;4.25;2.90;;;;;;;14.79;100.00;100400.34;5069087;28;20032;-67
2022/06/29 05:57:04;;;;;;;6.35;2.05;;;;;;;14.79;100.00;100402.13;5065264;28;20028;-67
2022/06/29 05:59:29;;;;;;;5.78;2.72;;;;;;;14.61;100.00;100376.91;5071212;28;20524;-68
2022/06/29 06:01:54;;;;;;;4.57;2.35;;;;;;;14.80;100.00;100404.66;5067882;28;20029;-67
2022/06/29 06:04:20;;;;;;;6.20;2.70;;;;;;;14.82;100.00;100404.56;5073019;28;20028;-67
2022/06/29 06:06:45;;;;;;;4.38;2.30;;;;;;;14.78;100.00;100392.50;5075413;28;20048;-67
2022/06/29 06:09:11;;;;;;;7.10;2.42;;;;;;;14.91;100.00;100419.81;5090093;28;20356;-67
2022/06/29 06:11:36;;;;;;;4.60;2.22;;;;;;;14.94;100.00;100405.56;5060551;28;20036;-67
2022/06/29 06:14:02;;;;;;;5.10;3.00;;;;;;;15.06;100.00;100410.00;5076500;28;20024;-67
2022/06/29 06:16:28;;;;;;;3.42;2.67;;;;;;;14.80;100.00;100357.03;5051037;28;20048;-67
2022/06/29 06:18:53;;;;;;;4.97;2.70;;;;;;;15.24;100.00;100411.38;5052344;28;20483;-67
2022/06/29 06:21:19;;;;;;;4.72;2.42;;;;;;;15.35;100.00;100416.75;5084609;28;20035;-68
2022/06/29 06:23:44;;;;;;;6.50;2.55;;;;;;;15.39;100.00;100402.38;5083232;28;20028;-68
2022/06/29 06:26:09;;;;;;;3.35;2.38;;;;;;;15.57;100.00;100417.00;5079324;28;20031;-68
2022/06/29 06:28:35;;;;;;;5.18;2.45;;;;;;;15.49;100.00;100376.09;5074815;28;20471;-68
2022/06/29 06:31:00;;;;;;;5.18;2.50;;;;;;;15.78;100.00;100404.03;5054237;28;20013;-68
2022/06/29 06:33:26;;;;;;;4.18;2.03;;;;;;;15.82;100.00;100390.44;5072975;28;20025;-68
2022/06/29 06:35:51;;;;;;;4.10;2.33;;;;;;;15.96;100.00;100392.09;5040480;28;20040;-68
2022/06/29 06:38:17;;;;;;;5.88;2.10;;;;;;;16.23;100.00;100418.41;5051931;28;20028;-67
2022/06/29 06:43:27;;;;;;;2.97;1.48;;;;;;;16.55;100.00;100416.91;5061430;28;20094;-67
2022/06/29 06:45:52;;;;;;;6.03;2.00;;;;;;;16.67;100.00;100396.56;5073049;28;20024;-67
2022/06/29 06:48:18;;;;;;;3.30;1.48;;;;;;;16.85;100.00;100397.84;5090451;28;20036;-68
2022/06/29 06:50:43;;;;;;;2.95;1.83;;;;;;;17.05;100.00;100399.81;5079670;28;20513;-68
2022/06/29 06:53:09;;;;;;;4.70;1.90;;;;;;;17.20;100.00;100398.63;5076747;28;20032;-68
2022/06/29 06:55:34;;;;;;;5.80;2.50;;;;;;;17.30;100.00;100399.59;5083517;28;20028;-68
2022/06/29 06:58:01;;;;;;;3.00;1.40;;;;;;;17.37;100.00;100379.56;5070660;28;20046;-68
2022/06/29 07:00:27;;;;;;;3.08;1.98;;;;;;;17.70;100.00;100399.16;5066189;28;20028;-68
2022/06/29 07:02:53;;;;;;;4.07;1.80;;;;;;;17.85;100.00;100395.25;5049620;28;20041;-68
2022/06/29 07:05:19;;;;;;;3.75;2.20;;;;;;;18.10;100.00;100394.13;5080530;28;20085;-68
2022/06/29 07:07:45;;;;;;;2.92;1.60;;;;;;;18.25;100.00;100393.72;5053407;28;20028;-68
2022/06/29 07:10:10;;;;;;;3.00;1.73;;;;;;;18.38;100.00;100393.56;5091313;28;20028;-73
2022/06/29 07:12:36;;;;;;;2.50;1.40;;;;;;;18.36;100.00;100375.06;5068894;28;20058;-68
2022/06/29 07:15:01;;;;;;;4.05;2.08;;;;;;;18.42;100.00;100372.88;5054951;28;20047;-68
2022/06/29 07:17:26;;;;;;;4.75;1.77;;;;;;;18.59;100.00;100389.13;5082848;28;20028;-68
2022/06/29 07:19:52;;;;;;;5.43;2.30;;;;;;;18.72;100.00;100391.66;5083492;28;20032;-68
2022/06/29 07:22:17;;;;;;;5.45;2.38;;;;;;;18.82;100.00;100392.56;5075966;28;20033;-68
2022/06/29 07:24:43;;;;;;;4.32;1.92;;;;;;;18.96;100.00;100386.88;5081996;28;20135;-69
2022/06/29 07:27:08;;;;;;;3.47;2.00;;;;;;;19.04;100.00;100387.09;5072851;28;20461;-69
2022/06/29 07:29:34;;;;;;;8.35;1.83;;;;;;;19.37;100.00;100399.31;5075500;28;20058;-69
2022/06/29 07:31:59;;;;;;;5.38;1.60;;;;;;;19.50;100.00;100383.97;5076763;28;20031;-68
2022/06/29 07:34:24;;;;;;;3.47;2.20;;;;;;;19.73;100.00;100379.31;5087495;28;20052;-68
2022/06/29 07:36:50;;;;;;;6.15;2.25;;;;;;;20.06;100.00;100386.97;5077165;28;20025;-68
2022/06/29 07:39:16;;;;;;;4.63;2.20;;;;;;;20.33;100.00;100389.84;5063335;28;20116;-68
2022/06/29 07:41:41;;;;;;;3.35;2.05;;;;;;;20.65;100.00;100408.25;5060998;28;20032;-68
2022/06/29 07:44:07;;;;;;;4.50;2.08;;;;;;;20.87;100.00;100401.78;5080929;28;20039;-68
2022/06/29 07:46:32;;;;;;;3.80;2.00;;;;;;;20.99;100.00;100389.94;5084147;28;20495;-68
2022/06/29 07:48:58;;;;;;;10.68;2.53;;;;;;;21.21;100.00;100403.00;5087941;28;20115;-69
2022/06/29 07:51:23;;;;;;;8.35;1.92;;;;;;;21.18;100.00;100384.59;5075832;28;20025;-68
2022/06/29 07:53:48;;;;;;;4.55;1.98;;;;;;;21.22;100.00;100379.81;5058191;28;20107;-68
2022/06/29 07:56:14;;;;;;;3.75;2.08;;;;;;;21.39;100.00;100398.56;5061404;28;20108;-69
2022/06/29 07:58:39;;;;;;;3.45;1.73;;;;;;;21.51;100.00;100399.25;5073534;28;20028;-68
2022/06/29 08:01:05;;;;;;;3.40;1.70;;;;;;;21.54;100.00;100395.44;5069585;28;20024;-68
2022/06/29 08:03:33;;;;;;;4.22;1.70;;;;;;;21.49;100.00;100370.97;5054637;28;20031;-68
2022/06/29 08:05:59;;;;;;;7.50;1.83;;;;;;;21.78;100.00;100391.25;5053193;28;20033;-68
2022/06/29 08:08:25;;;;;;;6.05;1.70;;;;;;;21.87;100.00;100394.84;5082844;28;20032;-68
2022/06/29 08:10:50;;;;;;;5.55;1.92;;;;;;;21.93;100.00;100388.97;5087666;28;20449;-68
2022/06/29 08:13:16;;;;;;;3.00;1.60;;;;;;;21.76;100.00;100344.25;5058618;28;20025;-68
2022/06/29 08:15:43;;;;;;;4.47;2.10;;;;;;;22.05;100.00;100393.09;5073539;28;20040;-68
2022/06/29 08:18:08;;;;;;;4.18;1.52;;;;;;;22.04;100.00;100374.50;5064656;28;20028;-69
2022/06/29 08:20:33;;;;;;;5.65;2.03;;;;;;;22.13;100.00;100387.84;5073270;28;20474;-68
2022/06/29 08:22:59;;;;;;;4.03;2.00;;;;;;;22.19;100.00;100373.84;5093540;28;20371;-70
2022/06/29 08:25:24;;;;;;;7.10;1.73;;;;;;;22.24;100.00;100379.56;5081864;28;20099;-69
2022/06/29 08:27:52;;;;;;;5.85;1.30;;;;;;;22.19;100.00;100367.66;5068641;28;20069;-68
2022/06/29 08:30:18;;;;;;;3.75;1.92;;;;;;;22.07;100.00;100342.91;5055697;28;20033;-68
2022/06/29 08:32:44;;;;;;;7.35;1.50;;;;;;;22.20;100.00;100362.16;5069039;28;20029;-68
2022/06/29 08:35:10;;;;;;;4.20;2.22;;;;;;;22.24;100.00;100365.34;5057989;28;20036;-68
2022/06/29 08:37:39;;;;;;;2.42;1.40;;;;;;;22.35;100.00;100374.00;5052009;28;20041;-69
2022/06/29 08:40:09;;;;;;;5.70;2.05;;;;;;;22.38;100.00;100373.69;5041297;28;20117;-68
2022/06/29 08:42:36;;;;;;;4.40;2.15;;;;;;;22.40;100.00;100371.72;5089543;28;20024;-68
2022/06/29 08:45:03;;;;;;;4.80;2.13;;;;;;;22.26;100.00;100369.56;5059980;28;20032;-68
2022/06/29 08:47:28;;;;;;;7.18;2.08;;;;;;;22.10;100.00;100374.75;5071562;28;20042;-68
2022/06/29 08:49:55;;;;;;;2.97;1.65;;;;;;;22.07;100.00;100383.06;5057233;28;20024;-68
2022/06/29 08:52:21;;;;;;;4.60;2.50;;;;;;;22.02;100.00;100381.84;5086808;28;20028;-68
2022/06/29 08:54:48;;;;;;;8.80;1.90;;;;;;;21.95;100.00;100370.91;5074039;28;20030;-68
2022/06/29 08:57:13;;;;;;;10.55;2.00;;;;;;;21.97;100.00;100374.25;5080656;28;20849;-68
2022/06/29 08:59:39;;;;;;;4.68;2.08;;;;;;;21.84;100.00;100357.69;5073386;28;20120;-68
2022/06/29 09:02:05;;;;;;;5.95;2.08;;;;;;;21.85;100.00;100370.94;5090693;28;20017;-68
2022/06/29 09:04:30;;;;;;;4.03;1.55;;;;;;;21.82;100.00;100376.59;5080191;28;20040;-68
2022/06/29 09:06:57;;;;;;;5.25;2.00;;;;;;;21.79;100.00;100378.72;5037893;28;20554;-68
2022/06/29 09:09:23;;;;;;;5.45;2.05;;;;;;;21.61;100.00;100359.94;5050010;28;20032;-68
2022/06/29 09:11:50;;;;;;;4.60;2.33;;;;;;;21.56;100.00;100364.06;5085161;28;20398;-68
2022/06/29 09:14:18;;;;;;;5.50;1.98;;;;;;;21.47;100.00;100354.22;5078465;28;20020;-68
2022/06/29 09:16:56;;;;;;;6.55;2.25;;;;;;;21.51;100.00;100379.69;5061838;28;20025;-68
2022/06/29 09:19:27;;;;;;;3.78;1.75;;;;;;;21.57;100.00;100374.59;5078093;28;20020;-68
2022/06/29 09:21:54;;;;;;;3.60;2.25;;;;;;;21.65;100.00;100368.50;5062355;28;20078;-69
2022/06/29 09:24:30;;;;;;;5.80;1.80;;;;;;;21.53;100.00;100326.91;5068171;28;20129;-69
2022/06/29 09:26:58;;;;;;;14.07;2.33;;;;;;;21.99;100.00;100374.13;5083306;28;20077;-69
2022/06/29 09:29:27;;;;;;;4.20;1.88;;;;;;;22.13;100.00;100373.63;5077351;28;20051;-70
2022/06/29 09:32:04;;;;;;;4.05;1.88;;;;;;;22.31;100.00;100371.78;5046426;28;20036;-69
2022/06/29 09:34:30;;;;;;;3.15;2.03;;;;;;;22.47;100.00;100379.97;5059926;28;20044;-68
2022/06/29 09:36:56;;;;;;;6.53;2.03;;;;;;;22.50;100.00;100373.47;5080236;28;20033;-68
2022/06/29 09:39:41;;;;;;;7.43;2.05;;;;;;;22.48;100.00;100359.38;5080442;28;20077;-69
2022/06/29 09:42:14;;;;;;;4.65;2.40;;;;;;;22.64;100.00;100362.22;5051889;28;20024;-69
2022/06/29 09:44:41;;;;;;;4.68;1.70;;;;;;;22.68;100.00;100363.59;5055293;28;20432;-68
2022/06/29 09:47:09;;;;;;;8.23;1.80;;;;;;;22.86;100.00;100383.19;5057215;28;20060;-69
2022/06/29 09:49:36;;;;;;;3.55;1.75;;;;;;;22.92;100.00;100374.50;5068896;28;20445;-69
2022/06/29 09:52:03;;;;;;;4.97;1.73;;;;;;;23.01;100.00;100381.63;5066242;28;20036;-69
2022/06/29 09:54:36;;;;;;;3.97;1.52;;;;;;;23.09;100.00;100370.94;5067627;28;20032;-68
2022/06/29 09:57:02;;;;;;;3.30;1.38;;;;;;;23.19;100.00;100374.34;5082985;28;20032;-69
2022/06/29 10:05:16;;;;;;;5.40;1.88;;;;;;;23.55;100.00;100385.00;5089256;28;20048;-70
2022/06/29 10:07:47;;;;;;;3.55;1.67;;;;;;;23.56;100.00;100360.66;5065029;28;20020;-69
2022/06/29 10:10:23;;;;;;;4.75;1.40;;;;;;;23.75;100.00;100367.63;5085116;28;20032;-70
2022/06/29 10:15:53;;;;;;;2.90;1.50;;;;;;;23.98;100.00;100370.56;5098975;28;20061;-69
2022/06/29 10:18:56;;;;;;;4.78;1.42;;;;;;;24.08;100.00;100372.09;5069151;28;20036;-69
2022/06/29 10:21:27;;;;;;;3.72;1.67;;;;;;;23.99;100.00;100338.19;5074462;28;20500;-69
2022/06/29 10:23:53;;;;;;;7.25;1.65;;;;;;;24.26;100.00;100363.94;5085418;28;20111;-69
2022/06/29 10:26:30;;;;;;;3.35;1.55;;;;;;;24.30;100.00;100360.75;5060587;28;20045;-69
2022/06/29 10:28:56;;;;;;;3.30;1.48;;;;;;;24.36;100.00;100360.09;5086056;28;20810;-69
2022/06/29 10:31:49;;;;;;;3.25;1.50;;;;;;;24.53;95.90;100360.97;5080083;28;20031;-69
2022/06/29 10:34:30;;;;;;;3.22;1.58;;;;;;;24.76;93.88;100356.59;5078896;28;20035;-70
2022/06/29 10:37:12;;;;;;;3.45;1.55;;;;;;;24.98;95.27;100349.69;5086768;28;20467;-69
2022/06/29 10:39:49;;;;;;;4.60;1.90;;;;;;;25.27;91.54;100354.50;5062993;28;20029;-69
2022/06/29 10:45:07;;;;;;;10.48;2.13;;;;;;;25.74;97.08;100333.84;5084301;28;20083;-70
2022/06/29 10:47:33;;;;;;;5.38;1.77;;;;;;;25.82;96.22;100331.09;5071885;28;20553;-69
2022/06/29 10:50:18;;;;;;;3.67;1.50;;;;;;;26.06;86.21;100335.50;5072891;28;20028;-68
2022/06/29 10:52:44;;;;;;;4.90;1.60;;;;;;;26.11;85.10;100330.41;5075699;28;20123;-68
2022/06/29 10:55:09;;;;;;;3.17;1.45;;;;;;;26.17;82.28;100312.72;5077179;28;20107;-69
2022/06/29 10:57:36;;;;;;;11.82;1.92;;;;;;;26.30;81.29;100316.50;5060602;28;20036;-70
2022/06/29 11:00:08;;;;;;;3.63;1.70;;;;;;;26.48;82.15;100318.03;5048742;28;20393;-69
2022/06/29 11:02:34;;;;;;;12.38;1.25;;;;;;;26.51;80.95;100302.34;5077991;28;20028;-70
2022/06/29 11:04:59;;;;;;;3.72;1.48;;;;;;;26.92;86.12;100305.53;5061962;28;20024;-70
2022/06/29 11:12:54;;;;;;;2.78;1.10;;;;;;;27.53;67.18;100309.75;5076716;28;20042;-70
2022/06/29 11:15:42;;;;;;;3.00;1.50;;;;;;;27.39;71.78;100311.41;5073430;28;20036;-70
2022/06/29 11:18:28;;;;;;;5.20;1.27;;;;;;;27.21;71.97;100316.31;5050560;28;20025;-70
2022/06/29 11:20:54;;;;;;;3.45;1.30;;;;;;;27.22;72.71;100291.03;5061004;28;20033;-70
2022/06/29 11:23:27;;;;;;;2.70;1.50;;;;;;;27.41;73.08;100306.63;5046918;28;20035;-70
2022/06/29 11:25:54;;;;;;;3.00;1.15;;;;;;;27.55;73.73;100306.84;5077632;28;20418;-70
2022/06/29 11:28:23;;;;;;;3.58;1.52;;;;;;;27.88;72.06;100306.19;5067515;28;20033;-70
2022/06/29 11:31:10;;;;;;;4.53;1.70;;;;;;;28.16;73.79;100311.75;5042001;28;20099;-69
2022/06/29 11:33:41;;;;;;;3.72;1.33;;;;;;;27.99;65.67;100307.56;5060543;28;20032;-70
2022/06/29 11:36:09;;;;;;;3.80;1.27;;;;;;;27.98;72.17;100302.38;5076313;28;20471;-70
2022/06/29 11:38:43;;;;;;;3.28;1.65;;;;;;;28.02;70.56;100304.47;5048291;28;20062;-70